首页
METAR-TAF:

METAR-TAF

机场 :

Newquay Cornwall, 英格兰

纬度: 50-26N, 经度: 005-00W, 海拔: 119米

当前天气观测

该预报发布于43分钟前的09:20 UTC
风速6节,风向东转东北,在北转东北东转东南之间变化
温度 20°C
湿度 49%
气压 1022 hPa
能见度10公里或以上
1500米以下无云,无积雨云

METAR: EGHQ 010920Z 06006KT 020V110 CAVOK 20/09 Q1022

时间: 11:03 (10:03 UTC)

预报

该预报发布于2小时和4分钟前的07:59 UTC
预报有效从01日的 09点(UTC)到 01日的 18点(UTC)
风速9节,风向
能见度10公里或以上
1500米以下无云,无积雨云
几率 30% :
短暂存在
从 01日的 13点(UTC)到 01日的 16点(UTC)
风速10节,风向南转南东

TAF: EGHQ 010759Z 0109/0118 09009KT CAVOK PROB30 TEMPO 0113/0116 16010KT

超过4000个机场的气象观测和天气预报(METAR&TAF报告)。

可查询的气象台以黄色和红色小点在地图上表示。

将鼠标移到小点上方,可查看气象台名称。

然后点击查看天气观测和预报。

如需切换地图:点击带黑十字的绿色按钮放大地图;点击带横线的绿色按钮缩小地图;或者点击绿色箭头查看邻近地区的地图。


METAR-TAF: